Terminal Aerodrome Forecast
Issued by NWS Cleveland, OH

Home | Current Version | Previous Version | Graphics & Text | Print | Product List | Glossary Off
Versions: 1 2 3 4 5 6 7 8 9 10 11 12 13 14 15 16 17 18 19 20 21 22 23 24 25 26 27 28 29 30 31 32 33 34

907
FTUS41 KCLE 200920 AAB
TAFCLE
TAF AMD
KCLE 200920Z 2009/2112 13006KT P6SM OVC150
     FM201000 11006KT 6SM -RA BR OVC040
     FM201200 13008KT 4SM -RA BR OVC020
     FM201500 15008KT 6SM BR OVC005
     FM201800 20006KT P6SM OVC007
     FM210000 18004KT 6SM BR OVC012=

USA.gov is the U.S. government's official web portal to all federal, state and local government web resources and services.